Time;durP1;ratioP1;P1;durP2;ratioP2;P2;SDS_P1;SDS_P2;PMS_P1;PMS_P2;Temp;Humidity;BMP_temperature;BMP_pressure;BME280_temperature;BME280_humidity;BME280_pressure;Samples;Min_cycle;Max_cycle;Signal;HPM_P1;HPM_P2
2021/03/31 00:02:19;;;;;;;13.40;8.60;;;;;;;5.94;88.32;101937.41;4988526;28;20185;-72
2021/03/31 00:04:45;;;;;;;15.50;8.23;;;;;;;5.95;89.20;101933.13;4983851;28;20220;-72
2021/03/31 00:07:12;;;;;;;12.50;8.00;;;;;;;5.94;89.75;101928.78;4987930;28;20765;-71
2021/03/31 00:09:38;;;;;;;14.47;8.20;;;;;;;5.95;90.19;101922.75;4986718;28;20438;-70
2021/03/31 00:12:06;;;;;;;13.00;8.13;;;;;;;5.84;88.67;101927.75;4983399;28;20205;-71
2021/03/31 00:14:32;;;;;;;13.83;8.27;;;;;;;5.83;89.57;101924.31;5011734;28;20288;-70
2021/03/31 00:16:58;;;;;;;11.13;8.00;;;;;;;5.82;90.18;101920.00;4988233;28;20208;-71
2021/03/31 00:19:25;;;;;;;12.83;8.87;;;;;;;5.74;89.35;101931.97;4992356;28;20201;-71
2021/03/31 00:21:51;;;;;;;13.67;8.07;;;;;;;5.71;89.36;101928.44;4976127;28;20626;-71
2021/03/31 00:24:17;;;;;;;13.17;7.77;;;;;;;5.67;89.61;101927.53;4987507;28;20637;-71
2021/03/31 00:26:42;;;;;;;14.93;8.17;;;;;;;5.62;89.31;101918.84;4991069;28;20339;-70
2021/03/31 00:29:09;;;;;;;14.67;7.77;;;;;;;5.62;88.97;101911.06;4985378;28;20201;-71
2021/03/31 00:31:35;;;;;;;16.50;8.53;;;;;;;5.64;90.43;101904.19;4989313;28;20213;-72
2021/03/31 00:34:02;;;;;;;12.53;7.20;;;;;;;5.62;90.49;101901.59;4975343;28;20310;-71
2021/03/31 00:36:28;;;;;;;12.47;8.37;;;;;;;5.58;90.35;101898.94;4987813;28;20209;-72
2021/03/31 00:38:54;;;;;;;12.20;7.77;;;;;;;5.61;91.51;101899.88;4986277;28;20658;-73
2021/03/31 00:41:21;;;;;;;13.33;8.27;;;;;;;5.64;92.76;101892.13;4986804;28;20255;-73
2021/03/31 00:43:47;;;;;;;11.27;7.80;;;;;;;5.63;92.96;101886.94;4986317;28;20202;-73
2021/03/31 00:46:13;;;;;;;14.00;7.23;;;;;;;5.56;92.23;101893.75;4986414;28;20220;-74
2021/03/31 00:48:39;;;;;;;15.70;7.97;;;;;;;5.56;92.61;101891.16;4985203;28;20566;-74
2021/03/31 00:51:06;;;;;;;13.30;7.83;;;;;;;5.56;92.88;101892.84;4999110;28;20228;-74
2021/03/31 00:53:36;;;;;;;14.73;7.87;;;;;;;5.52;92.84;101884.19;4983984;28;20568;-74
2021/03/31 00:56:03;;;;;;;12.47;7.93;;;;;;;5.47;92.54;101888.41;4988720;28;20201;-73
2021/03/31 00:58:29;;;;;;;16.20;8.07;;;;;;;5.49;93.05;101887.59;4984023;28;20703;-74
2021/03/31 01:00:55;;;;;;;12.83;7.93;;;;;;;5.42;92.27;101882.31;4993045;28;20217;-73
2021/03/31 01:03:22;;;;;;;11.97;6.90;;;;;;;5.34;91.58;101887.38;4978449;28;20606;-72
2021/03/31 01:05:48;;;;;;;9.50;7.57;;;;;;;5.35;92.57;101886.53;4977696;28;20259;-71
2021/03/31 01:08:15;;;;;;;11.80;7.37;;;;;;;5.30;92.65;101881.28;4980456;28;20315;-72
2021/03/31 01:10:43;;;;;;;14.17;8.10;;;;;;;5.30;93.68;101880.41;4984181;28;20639;-73
2021/03/31 01:13:44;;;;;;;10.43;6.73;;;;;;;5.25;93.37;101888.09;4990698;28;20194;-72
2021/03/31 01:16:20;;;;;;;15.87;7.77;;;;;;;5.21;93.33;101875.97;4984833;28;20208;-73
2021/03/31 01:18:53;;;;;;;12.07;7.80;;;;;;;5.18;93.44;101880.22;4989159;28;20636;-72
2021/03/31 01:21:59;;;;;;;13.67;8.00;;;;;;;5.16;94.16;101882.78;4983495;28;20312;-73
2021/03/31 01:24:52;;;;;;;12.30;7.63;;;;;;;5.17;94.09;101881.06;4987592;28;20201;-73
2021/03/31 01:27:26;;;;;;;10.97;7.30;;;;;;;5.12;94.05;101883.59;4985029;28;20221;-73
2021/03/31 01:30:00;;;;;;;10.50;7.03;;;;;;;5.08;94.08;101884.34;4983510;28;20261;-73
2021/03/31 01:32:45;;;;;;;10.33;6.90;;;;;;;5.07;94.83;101873.16;4984069;28;20229;-72
2021/03/31 01:35:14;;;;;;;11.27;6.70;;;;;;;5.04;94.73;101874.81;4984244;28;20233;-73
2021/03/31 01:37:44;;;;;;;10.53;6.77;;;;;;;4.97;94.90;101873.84;4981748;28;20208;-73
2021/03/31 01:40:12;;;;;;;11.80;7.37;;;;;;;5.04;96.07;101870.50;4984484;28;20751;-73
2021/03/31 01:42:41;;;;;;;12.37;7.40;;;;;;;4.97;95.64;101867.81;4985706;28;20666;-72
2021/03/31 01:45:09;;;;;;;11.03;7.33;;;;;;;4.99;96.10;101871.28;4987793;28;20221;-72
2021/03/31 01:47:38;;;;;;;10.83;6.40;;;;;;;4.91;95.35;101866.84;4978280;28;20221;-73
2021/03/31 01:50:06;;;;;;;12.87;7.37;;;;;;;4.92;95.35;101871.19;4987575;28;20283;-72
2021/03/31 01:52:35;;;;;;;11.37;7.13;;;;;;;4.95;96.68;101870.38;4988627;28;20201;-72
2021/03/31 01:55:03;;;;;;;12.10;7.37;;;;;;;4.88;96.20;101865.94;4980990;28;20276;-72
2021/03/31 01:57:30;;;;;;;13.57;7.40;;;;;;;4.91;96.87;101866.84;4989771;28;20211;-73
2021/03/31 01:59:58;;;;;;;12.13;7.27;;;;;;;4.80;95.43;101867.50;4984985;28;20381;-72
2021/03/31 02:02:26;;;;;;;11.27;7.20;;;;;;;4.84;96.72;101870.19;4986753;28;20193;-72
2021/03/31 02:04:53;;;;;;;12.57;7.10;;;;;;;4.77;95.91;101872.63;4988364;28;20205;-73
2021/03/31 02:07:21;;;;;;;10.60;6.57;;;;;;;4.77;96.30;101870.91;4984199;28;20738;-73
2021/03/31 02:09:49;;;;;;;10.83;6.67;;;;;;;4.74;96.25;101868.28;4980975;28;20839;-73
2021/03/31 02:12:19;;;;;;;12.60;7.13;;;;;;;4.79;97.27;101864.06;4984879;28;20201;-73
2021/03/31 02:14:47;;;;;;;10.90;6.80;;;;;;;4.70;96.98;101867.34;4981479;28;20288;-73
2021/03/31 02:17:15;;;;;;;10.13;6.40;;;;;;;4.72;98.04;101864.81;4979684;28;20194;-73
2021/03/31 02:19:42;;;;;;;11.97;7.17;;;;;;;4.72;98.05;101868.25;4985238;28;20198;-73
2021/03/31 02:22:08;;;;;;;10.43;6.27;;;;;;;4.71;97.71;101868.22;4977532;28;20215;-73
2021/03/31 02:24:35;;;;;;;10.33;6.50;;;;;;;4.70;97.69;101866.50;4986961;28;20200;-73
2021/03/31 02:27:05;;;;;;;13.33;7.37;;;;;;;4.76;98.92;101864.00;4986024;28;20300;-73
2021/03/31 02:29:31;;;;;;;8.03;5.97;;;;;;;4.73;99.03;101877.75;4982503;28;20211;-73
2021/03/31 02:31:58;;;;;;;11.23;6.37;;;;;;;4.63;98.24;101873.25;4985884;28;20752;-73
2021/03/31 02:34:27;;;;;;;12.23;6.60;;;;;;;4.65;98.86;101870.69;4980367;28;20205;-73
2021/03/31 02:36:53;;;;;;;10.73;5.90;;;;;;;4.61;98.82;101869.78;4993767;28;20200;-73
2021/03/31 02:39:22;;;;;;;12.13;7.07;;;;;;;4.60;99.17;101864.56;4981323;28;20673;-73
2021/03/31 02:41:51;;;;;;;11.90;6.67;;;;;;;4.55;98.99;101867.06;4986318;28;20279;-73
2021/03/31 02:44:20;;;;;;;9.90;5.97;;;;;;;4.54;98.86;101866.19;4984471;28;20201;-71
2021/03/31 02:46:47;;;;;;;13.20;7.17;;;;;;;4.53;98.58;101861.00;4988960;28;20312;-72
2021/03/31 02:49:15;;;;;;;10.87;6.80;;;;;;;4.50;98.58;101863.53;4993141;28;20291;-73
2021/03/31 02:51:42;;;;;;;9.40;6.63;;;;;;;4.50;98.66;101860.94;4984384;28;20312;-72
2021/03/31 02:54:09;;;;;;;9.23;5.73;;;;;;;4.51;99.14;101860.13;4988420;28;20292;-71
2021/03/31 02:56:39;;;;;;;11.63;6.00;;;;;;;4.49;99.09;101860.06;4985819;28;20232;-75
2021/03/31 02:59:06;;;;;;;11.57;6.80;;;;;;;4.44;98.74;101866.88;4988281;28;20217;-73
2021/03/31 03:01:33;;;;;;;13.33;6.50;;;;;;;4.43;99.13;101861.66;4981310;28;20735;-72
2021/03/31 03:03:59;;;;;;;10.17;6.70;;;;;;;4.38;99.47;101866.78;4985155;28;20197;-73
2021/03/31 03:06:30;;;;;;;10.77;6.40;;;;;;;4.31;98.78;101865.78;4976624;28;20224;-73
2021/03/31 03:08:58;;;;;;;10.10;6.17;;;;;;;4.27;98.26;101863.09;4983358;28;20710;-72
2021/03/31 03:11:24;;;;;;;10.87;6.77;;;;;;;4.33;99.54;101865.81;4988439;28;20220;-73
2021/03/31 03:13:52;;;;;;;9.13;5.87;;;;;;;4.33;99.91;101860.63;4979281;28;20209;-72
2021/03/31 03:16:19;;;;;;;12.33;6.87;;;;;;;4.30;100.00;101850.25;4988359;28;20229;-73
2021/03/31 03:18:46;;;;;;;9.00;5.57;;;;;;;4.28;99.92;101855.38;4991519;28;20225;-73
2021/03/31 03:21:14;;;;;;;13.53;7.20;;;;;;;4.35;100.00;101851.22;4992991;28;20220;-72
2021/03/31 03:23:42;;;;;;;12.13;6.80;;;;;;;4.32;100.00;101844.25;4987325;28;20209;-72
2021/03/31 03:26:09;;;;;;;13.53;7.00;;;;;;;4.26;100.00;101845.88;4991301;28;20240;-72
2021/03/31 03:28:37;;;;;;;11.20;6.17;;;;;;;4.23;100.00;101846.66;4982818;28;20280;-72
2021/03/31 03:31:03;;;;;;;9.37;6.17;;;;;;;4.20;100.00;101845.75;4987223;28;20251;-73
2021/03/31 03:33:30;;;;;;;10.60;6.57;;;;;;;4.17;100.00;101842.25;4990753;28;20209;-72
2021/03/31 03:35:57;;;;;;;11.73;7.10;;;;;;;4.20;100.00;101844.03;4988629;28;20228;-72
2021/03/31 03:38:23;;;;;;;9.87;6.70;;;;;;;4.15;100.00;101848.22;4989977;28;20201;-72
2021/03/31 03:40:50;;;;;;;10.90;6.47;;;;;;;4.06;100.00;101848.03;4989938;28;20273;-73
2021/03/31 03:43:17;;;;;;;11.77;6.30;;;;;;;4.06;100.00;101840.28;4990956;28;20302;-72
2021/03/31 03:45:44;;;;;;;15.27;6.83;;;;;;;4.10;100.00;101839.53;4984872;28;20204;-73
2021/03/31 03:48:11;;;;;;;11.87;6.80;;;;;;;4.00;100.00;101846.22;4989042;28;20707;-72
2021/03/31 03:50:37;;;;;;;10.17;5.73;;;;;;;4.01;100.00;101839.34;4986746;28;20240;-73
2021/03/31 03:53:04;;;;;;;10.17;6.37;;;;;;;4.00;100.00;101835.03;4983101;28;20625;-73
2021/03/31 03:55:33;;;;;;;11.67;6.90;;;;;;;3.95;100.00;101840.94;4991676;28;20773;-72
2021/03/31 03:58:06;;;;;;;11.63;6.43;;;;;;;3.95;100.00;101845.25;4983441;28;20187;-73
2021/03/31 04:00:32;;;;;;;10.23;6.47;;;;;;;3.86;99.63;101838.19;4987697;28;20628;-73
2021/03/31 04:02:59;;;;;;;12.97;6.80;;;;;;;3.89;100.00;101838.25;4988235;28;20197;-73
2021/03/31 04:05:26;;;;;;;12.80;6.67;;;;;;;3.92;100.00;101843.50;4986686;28;20565;-73
2021/03/31 04:07:52;;;;;;;11.27;6.10;;;;;;;3.84;100.00;101841.59;4993517;28;20729;-73
2021/03/31 04:10:22;;;;;;;11.93;6.40;;;;;;;3.86;100.00;101837.31;4987404;28;20664;-72
2021/03/31 04:12:50;;;;;;;12.17;6.10;;;;;;;3.85;100.00;101843.31;4990077;28;20618;-71
2021/03/31 04:15:18;;;;;;;12.87;6.57;;;;;;;3.77;100.00;101838.00;4986853;28;20198;-71
2021/03/31 04:17:45;;;;;;;11.07;6.47;;;;;;;3.87;100.00;101842.53;4989308;28;20601;-73
2021/03/31 04:20:16;;;;;;;10.47;6.07;;;;;;;3.84;100.00;101839.88;4979935;28;20844;-72
2021/03/31 04:22:42;;;;;;;11.47;6.93;;;;;;;3.88;100.00;101835.63;4989741;28;20201;-71
2021/03/31 04:25:10;;;;;;;10.27;5.80;;;;;;;3.85;100.00;101836.44;4991088;28;20587;-72
2021/03/31 04:27:38;;;;;;;8.60;6.60;;;;;;;3.77;100.00;101838.84;4990081;28;20225;-72
2021/03/31 04:30:05;;;;;;;12.80;6.90;;;;;;;3.69;100.00;101836.94;4991338;28;20239;-72
2021/03/31 04:32:32;;;;;;;12.20;7.23;;;;;;;3.85;100.00;101835.56;4990517;28;20209;-72
2021/03/31 04:35:01;;;;;;;13.60;6.53;;;;;;;3.78;100.00;101838.03;4995804;28;20287;-71
2021/03/31 04:37:27;;;;;;;11.13;6.27;;;;;;;3.85;100.00;101835.56;4981362;28;20446;-72
2021/03/31 04:39:53;;;;;;;9.07;6.10;;;;;;;3.79;100.00;101837.19;4991343;28;20239;-71
2021/03/31 04:42:20;;;;;;;10.67;6.30;;;;;;;3.73;100.00;101839.66;4988906;28;20558;-73
2021/03/31 04:44:46;;;;;;;10.80;7.20;;;;;;;3.72;100.00;101842.19;4987832;28;20200;-72
2021/03/31 04:47:12;;;;;;;10.20;5.80;;;;;;;3.68;100.00;101837.81;4985972;28;20248;-72
2021/03/31 04:49:38;;;;;;;9.57;6.00;;;;;;;3.64;100.00;101834.28;4986652;28;20297;-71
2021/03/31 04:52:05;;;;;;;10.33;6.67;;;;;;;3.61;100.00;101834.22;4987530;28;20288;-70
2021/03/31 04:54:31;;;;;;;13.93;7.07;;;;;;;3.70;100.00;101829.25;4988665;28;20208;-71
2021/03/31 04:56:57;;;;;;;15.80;7.73;;;;;;;3.63;100.00;101829.97;4990116;28;20247;-71
2021/03/31 04:59:23;;;;;;;13.97;7.10;;;;;;;3.66;100.00;101831.72;4983911;28;20198;-71
2021/03/31 05:01:50;;;;;;;11.27;6.77;;;;;;;3.70;100.00;101829.25;4987260;28;20225;-71
2021/03/31 05:04:16;;;;;;;10.03;6.43;;;;;;;3.67;100.00;101834.34;4983543;28;20286;-71
2021/03/31 05:06:42;;;;;;;10.50;6.73;;;;;;;3.74;100.00;101828.47;4986279;28;20255;-71
2021/03/31 05:09:08;;;;;;;11.40;7.07;;;;;;;3.73;100.00;101826.75;4989202;28;20284;-71
2021/03/31 05:11:34;;;;;;;13.90;7.03;;;;;;;3.75;100.00;101824.19;4982121;28;20260;-71
2021/03/31 05:14:01;;;;;;;11.20;6.63;;;;;;;3.76;100.00;101821.66;4985918;28;20200;-72
2021/03/31 05:16:27;;;;;;;17.67;7.57;;;;;;;3.76;100.00;101821.66;4977637;28;20696;-72
2021/03/31 05:18:54;;;;;;;10.60;6.43;;;;;;;3.81;100.00;101824.31;4988099;28;20913;-72
2021/03/31 05:21:20;;;;;;;12.20;7.43;;;;;;;3.76;100.00;101824.25;4986334;28;20255;-71
2021/03/31 05:23:46;;;;;;;11.17;6.70;;;;;;;3.80;100.00;101820.00;4982896;28;20280;-71
2021/03/31 05:26:12;;;;;;;18.10;8.00;;;;;;;3.84;100.00;101823.53;4986286;28;20198;-71
2021/03/31 05:28:38;;;;;;;15.87;7.83;;;;;;;3.86;100.00;101824.41;4982531;28;20775;-71
2021/03/31 05:31:04;;;;;;;13.63;8.27;;;;;;;3.94;100.00;101820.25;4987530;28;20230;-71
2021/03/31 05:33:30;;;;;;;13.77;8.17;;;;;;;3.97;100.00;101822.91;5002024;28;20227;-71
2021/03/31 05:35:57;;;;;;;14.40;8.73;;;;;;;4.03;100.00;101814.41;4988162;28;20193;-71
2021/03/31 05:38:41;;;;;;;14.70;7.77;;;;;;;4.07;100.00;101816.25;4994860;28;20280;-71
2021/03/31 05:41:08;;;;;;;15.50;8.23;;;;;;;4.09;100.00;101812.84;5000989;28;20306;-72
2021/03/31 05:43:35;;;;;;;15.43;8.30;;;;;;;4.17;100.00;101813.88;4986156;28;20284;-71
2021/03/31 05:46:01;;;;;;;16.00;8.43;;;;;;;4.21;100.00;101819.09;4984625;28;20592;-72
2021/03/31 05:48:28;;;;;;;14.83;8.67;;;;;;;4.25;100.00;101810.56;4989683;28;20209;-72
2021/03/31 05:50:54;;;;;;;14.73;8.80;;;;;;;4.27;100.00;101808.88;4992285;28;20261;-71
2021/03/31 05:53:21;;;;;;;16.40;8.97;;;;;;;4.32;100.00;101812.41;4989015;28;20665;-71
2021/03/31 05:55:47;;;;;;;15.50;9.13;;;;;;;4.38;100.00;101809.97;4980831;28;20208;-71
2021/03/31 05:58:13;;;;;;;19.37;10.00;;;;;;;4.47;99.63;101811.84;4986217;28;20272;-71
2021/03/31 06:00:39;;;;;;;17.50;10.03;;;;;;;4.55;99.11;101813.69;4990077;28;20229;-70
2021/03/31 06:03:07;;;;;;;20.83;9.77;;;;;;;4.70;99.07;101813.09;4983046;28;20211;-72
2021/03/31 06:05:33;;;;;;;19.43;9.57;;;;;;;4.83;98.41;101803.81;4985185;28;20209;-71
2021/03/31 06:08:00;;;;;;;18.73;10.97;;;;;;;4.98;97.47;101810.06;4979041;28;20263;-71
2021/03/31 06:10:27;;;;;;;18.67;10.27;;;;;;;5.11;96.62;101806.84;4987451;28;20304;-72
2021/03/31 06:12:56;;;;;;;20.17;11.73;;;;;;;5.28;95.90;101804.53;4984945;28;20190;-71
2021/03/31 06:15:28;;;;;;;22.67;11.17;;;;;;;5.46;94.54;101804.78;4985552;28;20217;-72
2021/03/31 06:17:57;;;;;;;24.03;12.00;;;;;;;5.67;92.61;101800.75;4992684;28;20275;-72
2021/03/31 06:20:36;;;;;;;27.03;12.63;;;;;;;5.87;91.04;101804.47;4984935;28;20213;-72
2021/03/31 06:23:12;;;;;;;24.97;12.87;;;;;;;6.06;89.91;101802.09;4981961;28;20210;-72
2021/03/31 06:25:46;;;;;;;28.97;13.07;;;;;;;6.24;88.74;101797.13;4983429;28;20233;-71
2021/03/31 06:28:12;;;;;;;23.73;12.33;;;;;;;6.40;88.01;101792.09;4987295;28;20210;-72
2021/03/31 06:30:38;;;;;;;25.77;12.17;;;;;;;6.59;86.99;101799.19;4983362;28;20229;-71
2021/03/31 06:33:05;;;;;;;21.47;11.27;;;;;;;6.75;86.60;101799.31;4993036;28;20204;-71
2021/03/31 06:35:31;;;;;;;20.67;10.93;;;;;;;6.99;85.09;101801.25;4991405;28;20946;-71
2021/03/31 06:38:08;;;;;;;25.67;12.07;;;;;;;7.12;85.00;101791.81;4986769;28;20201;-72
2021/03/31 06:40:40;;;;;;;21.53;11.13;;;;;;;7.26;84.04;101799.69;4976253;28;20236;-71
2021/03/31 06:43:15;;;;;;;19.70;11.87;;;;;;;7.44;83.05;101801.53;4984329;28;20205;-72
2021/03/31 06:45:49;;;;;;;18.17;10.37;;;;;;;7.62;82.07;101804.22;4983710;28;20644;-71
2021/03/31 06:48:15;;;;;;;16.90;9.63;;;;;;;7.77;81.61;101806.91;4995373;28;20656;-72
2021/03/31 06:50:50;;;;;;;17.97;10.70;;;;;;;7.93;81.42;101801.75;4987066;28;20225;-72
2021/03/31 06:53:25;;;;;;;21.73;10.67;;;;;;;8.12;80.57;101800.94;4983719;28;20205;-73
2021/03/31 06:55:58;;;;;;;16.67;9.83;;;;;;;8.26;80.64;101802.72;4984219;28;20201;-72
2021/03/31 06:58:25;;;;;;;18.67;10.50;;;;;;;8.43;78.88;101795.00;4981829;28;20205;-72
2021/03/31 07:00:51;;;;;;;17.97;10.10;;;;;;;8.58;78.99;101809.72;4986982;28;20216;-72
2021/03/31 07:03:18;;;;;;;17.33;10.67;;;;;;;8.70;78.94;101800.19;4987809;28;20598;-71
2021/03/31 07:05:45;;;;;;;15.90;9.97;;;;;;;8.88;78.30;101798.47;4982318;28;20761;-72
2021/03/31 07:08:15;;;;;;;17.67;9.93;;;;;;;8.99;77.30;101801.06;4982792;28;20212;-71
2021/03/31 07:10:43;;;;;;;23.20;9.83;;;;;;;9.16;77.24;101801.06;4979327;28;20702;-72
2021/03/31 07:13:09;;;;;;;19.60;10.27;;;;;;;9.35;76.65;101804.50;4986231;28;20745;-72
2021/03/31 07:15:36;;;;;;;17.03;9.73;;;;;;;9.49;76.24;101807.91;4975511;28;20673;-72
2021/03/31 07:18:03;;;;;;;18.20;10.30;;;;;;;9.64;75.49;101802.69;4986246;28;20230;-72
2021/03/31 07:20:31;;;;;;;15.97;9.67;;;;;;;9.77;74.32;101811.28;4985122;28;20223;-72
2021/03/31 07:23:00;;;;;;;15.47;9.37;;;;;;;9.92;73.27;101804.28;4982921;28;20230;-72
2021/03/31 07:25:26;;;;;;;16.33;9.63;;;;;;;10.07;73.23;101800.75;4979522;28;20227;-72
2021/03/31 07:27:55;;;;;;;19.50;9.63;;;;;;;10.26;73.82;101788.50;4981155;28;20706;-72
2021/03/31 07:30:24;;;;;;;19.03;10.63;;;;;;;10.37;72.88;101792.78;4979161;28;20231;-71
2021/03/31 07:32:54;;;;;;;18.70;9.70;;;;;;;10.42;71.76;101801.44;4982802;28;20747;-72
2021/03/31 07:35:22;;;;;;;18.90;9.60;;;;;;;10.59;70.77;101800.47;4985963;28;20292;-70
2021/03/31 07:37:49;;;;;;;17.23;9.20;;;;;;;10.78;69.99;101796.81;4980203;28;20593;-71
2021/03/31 07:40:17;;;;;;;17.03;9.03;;;;;;;10.85;69.20;101807.19;4986160;28;20224;-73
2021/03/31 07:42:47;;;;;;;13.43;7.77;;;;;;;11.06;67.85;101803.53;4980780;28;20224;-72
2021/03/31 07:45:16;;;;;;;16.47;9.00;;;;;;;11.16;67.57;101803.44;4985506;28;20212;-72
2021/03/31 07:47:44;;;;;;;16.10;8.90;;;;;;;11.32;67.46;101803.28;4982876;28;20252;-72
2021/03/31 07:50:12;;;;;;;17.27;9.10;;;;;;;11.44;66.78;101804.91;4980590;28;20249;-72
2021/03/31 07:52:55;;;;;;;17.90;8.50;;;;;;;11.56;66.59;101805.63;4983430;28;20199;-72
2021/03/31 07:55:35;;;;;;;17.97;8.70;;;;;;;11.68;65.91;101804.63;4978413;28;20678;-71
2021/03/31 07:58:23;;;;;;;15.90;7.97;;;;;;;11.87;65.68;101805.28;4984805;28;20194;-73
2021/03/31 08:00:58;;;;;;;15.60;7.83;;;;;;;12.00;64.53;101808.59;4975468;28;21013;-71
2021/03/31 08:03:26;;;;;;;13.50;7.83;;;;;;;12.20;63.88;101804.84;4981080;28;20229;-73
2021/03/31 08:06:20;;;;;;;14.53;8.10;;;;;;;12.33;63.16;101809.03;4978171;28;20523;-73
2021/03/31 08:09:03;;;;;;;17.33;8.00;;;;;;;12.41;63.37;101803.69;4975090;28;20238;-71
2021/03/31 08:11:53;;;;;;;13.27;8.00;;;;;;;12.53;61.54;101807.88;4976206;28;20228;-73
2021/03/31 08:14:35;;;;;;;15.47;7.87;;;;;;;12.72;61.01;101806.69;4986906;28;20207;-71
2021/03/31 08:17:03;;;;;;;15.50;8.20;;;;;;;12.83;61.59;101802.13;4984877;28;20205;-73
2021/03/31 08:19:32;;;;;;;16.33;7.70;;;;;;;13.03;60.00;101803.53;4984325;28;20626;-72
2021/03/31 08:22:17;;;;;;;13.53;7.47;;;;;;;13.17;59.24;101806.75;4991119;28;20841;-71
2021/03/31 08:24:44;;;;;;;13.43;7.80;;;;;;;13.29;59.96;101805.69;4983964;28;20612;-72
2021/03/31 08:27:12;;;;;;;16.90;8.60;;;;;;;13.38;57.84;101800.28;4980947;28;20256;-71
2021/03/31 08:29:48;;;;;;;18.43;8.40;;;;;;;13.54;59.17;101798.25;4981830;28;20563;-72
2021/03/31 08:32:15;;;;;;;14.03;7.80;;;;;;;13.70;58.34;101803.19;4977036;28;20189;-72
2021/03/31 08:34:42;;;;;;;14.60;8.20;;;;;;;13.85;56.05;101805.50;4984320;28;20227;-72
2021/03/31 08:37:20;;;;;;;16.57;8.27;;;;;;;13.95;56.89;101799.16;4987556;28;20989;-73
2021/03/31 08:39:46;;;;;;;20.03;7.97;;;;;;;14.02;56.37;101795.50;4981637;28;20209;-73
2021/03/31 08:42:12;;;;;;;16.10;8.37;;;;;;;14.21;57.31;101789.84;4984094;28;20557;-72
2021/03/31 08:44:39;;;;;;;17.20;8.40;;;;;;;14.38;56.16;101792.94;4982288;28;20332;-72
2021/03/31 08:47:10;;;;;;;19.90;8.23;;;;;;;14.50;56.26;101791.78;4984731;28;20217;-72
2021/03/31 08:49:37;;;;;;;14.87;8.13;;;;;;;14.63;54.83;101787.13;4981997;28;20221;-72
2021/03/31 08:52:06;;;;;;;19.70;8.33;;;;;;;14.76;54.12;101787.72;4981257;28;20517;-72
2021/03/31 08:54:35;;;;;;;17.10;8.10;;;;;;;14.91;54.28;101799.56;4986713;28;20209;-72
2021/03/31 08:57:03;;;;;;;18.13;8.13;;;;;;;15.08;52.99;101784.25;4980318;28;20205;-72
2021/03/31 08:59:30;;;;;;;18.40;8.70;;;;;;;15.14;53.61;101789.34;4986190;28;20236;-71
2021/03/31 09:01:56;;;;;;;16.80;8.57;;;;;;;15.25;54.31;101777.66;4977658;28;20221;-71
2021/03/31 09:04:25;;;;;;;19.37;8.83;;;;;;;15.33;51.69;101788.81;4979053;28;20197;-72
2021/03/31 09:06:51;;;;;;;18.63;8.03;;;;;;;15.51;52.00;101784.81;4982667;28;20630;-73
2021/03/31 09:09:17;;;;;;;18.53;8.70;;;;;;;15.64;51.46;101782.72;4981701;28;20252;-73
2021/03/31 09:11:44;;;;;;;20.50;8.90;;;;;;;15.86;50.86;101775.94;4983352;28;20222;-72
2021/03/31 09:14:18;;;;;;;16.13;8.37;;;;;;;15.92;50.38;101776.66;4977357;28;20620;-72
2021/03/31 09:16:56;;;;;;;19.57;8.27;;;;;;;15.99;50.07;101773.81;4986739;28;20620;-72
2021/03/31 09:19:24;;;;;;;17.67;8.20;;;;;;;15.99;52.28;101770.28;4984240;28;20209;-72
2021/03/31 09:21:51;;;;;;;16.93;8.30;;;;;;;16.17;50.05;101767.13;4984839;28;20811;-73
2021/03/31 09:24:20;;;;;;;17.37;8.90;;;;;;;16.29;49.73;101768.50;4979318;28;20214;-73
2021/03/31 09:26:57;;;;;;;16.80;8.23;;;;;;;16.41;50.76;101765.47;4984856;28;20242;-72
2021/03/31 09:29:25;;;;;;;15.83;7.87;;;;;;;16.45;50.22;101755.72;4979273;28;20200;-72
2021/03/31 09:31:52;;;;;;;18.00;8.40;;;;;;;16.60;48.88;101749.94;4984816;28;20252;-73
2021/03/31 09:34:18;;;;;;;14.73;7.27;;;;;;;16.75;50.02;101748.53;4986744;28;20207;-73
2021/03/31 09:37:00;;;;;;;18.23;8.70;;;;;;;16.87;49.79;101746.44;4981445;28;20215;-71
2021/03/31 09:39:40;;;;;;;15.90;8.60;;;;;;;16.93;48.36;101744.44;5004614;28;20566;-72
2021/03/31 09:42:07;;;;;;;17.43;9.10;;;;;;;17.00;49.01;101734.56;4983568;28;20495;-72
2021/03/31 09:44:36;;;;;;;17.47;8.47;;;;;;;17.14;49.22;101734.06;4986043;28;20201;-72
2021/03/31 09:47:03;;;;;;;17.43;7.90;;;;;;;17.21;48.89;101731.16;4981972;28;20228;-72
2021/03/31 09:49:29;;;;;;;19.93;8.80;;;;;;;17.24;46.57;101730.19;4986849;28;20197;-73
2021/03/31 09:51:55;;;;;;;16.40;7.83;;;;;;;17.33;47.99;101721.94;4985549;28;20721;-73
2021/03/31 09:54:25;;;;;;;13.77;7.70;;;;;;;17.44;47.05;101731.22;4981494;28;20213;-71
2021/03/31 09:56:52;;;;;;;16.07;8.17;;;;;;;17.58;46.15;101727.13;4983145;28;20689;-72
2021/03/31 09:59:20;;;;;;;17.87;8.50;;;;;;;17.68;46.28;101727.66;4982289;28;20571;-73
2021/03/31 10:01:47;;;;;;;19.40;8.93;;;;;;;17.78;44.67;101728.16;4973618;28;20288;-72
2021/03/31 10:04:14;;;;;;;17.30;8.50;;;;;;;17.95;45.10;101724.88;4980901;28;20280;-72
2021/03/31 10:06:41;;;;;;;16.73;8.87;;;;;;;18.09;45.64;101719.91;4977080;28;20285;-72
2021/03/31 10:09:17;;;;;;;16.53;8.40;;;;;;;18.25;43.54;101720.16;4976687;28;20213;-73
2021/03/31 10:11:45;;;;;;;19.60;9.60;;;;;;;18.28;45.30;101704.19;4981571;28;20233;-72
2021/03/31 10:14:21;;;;;;;17.73;8.53;;;;;;;18.33;44.46;101712.78;4983648;28;20197;-73
2021/03/31 10:16:48;;;;;;;16.20;7.90;;;;;;;18.31;43.74;101708.47;4982952;28;20209;-73
2021/03/31 10:19:15;;;;;;;17.80;8.30;;;;;;;18.39;45.02;101698.47;4985135;28;20275;-72
2021/03/31 10:21:42;;;;;;;15.07;8.50;;;;;;;18.50;44.20;101698.88;4980908;28;20241;-73
2021/03/31 10:24:11;;;;;;;18.10;7.97;;;;;;;18.57;43.08;101703.88;4979336;28;20206;-73
2021/03/31 10:26:38;;;;;;;14.77;7.23;;;;;;;18.76;41.75;101698.69;4981184;28;20201;-72
2021/03/31 10:29:06;;;;;;;14.23;7.30;;;;;;;18.74;41.12;101702.22;4985492;28;20220;-73
2021/03/31 10:31:36;;;;;;;13.63;7.80;;;;;;;18.89;41.34;101699.88;4981434;28;20304;-72
2021/03/31 10:34:03;;;;;;;16.47;7.73;;;;;;;18.76;40.13;101691.59;4978108;28;20560;-73
2021/03/31 10:36:47;;;;;;;18.23;7.33;;;;;;;18.89;41.49;101692.81;4983606;28;20405;-72
2021/03/31 10:50:41;;;;;;;12.00;6.67;;;;;;;19.25;38.76;101678.88;4972630;28;20352;-73
2021/03/31 10:53:08;;;;;;;14.43;7.00;;;;;;;19.24;37.45;101684.22;4988558;28;20208;-73
2021/03/31 10:55:34;;;;;;;14.83;7.47;;;;;;;19.29;37.54;101674.31;4978334;28;20224;-73
2021/03/31 10:58:00;;;;;;;12.53;6.83;;;;;;;19.37;37.19;101674.81;4984988;28;20288;-72
2021/03/31 11:00:26;;;;;;;13.03;7.37;;;;;;;19.52;37.34;101662.63;4981295;28;20217;-73
2021/03/31 11:02:54;;;;;;;13.03;7.57;;;;;;;19.59;36.36;101668.50;4983923;28;20287;-73
2021/03/31 11:05:21;;;;;;;13.83;7.07;;;;;;;19.70;36.31;101668.88;4983693;28;20228;-73
2021/03/31 11:07:47;;;;;;;14.20;7.37;;;;;;;19.75;35.92;101658.97;4981556;28;20305;-73
2021/03/31 11:10:13;;;;;;;12.73;7.00;;;;;;;19.89;37.63;101657.41;4977214;28;20688;-72
2021/03/31 11:12:39;;;;;;;18.30;7.83;;;;;;;19.85;37.38;101662.84;4980686;28;20221;-72
2021/03/31 11:15:08;;;;;;;15.53;8.13;;;;;;;19.86;34.64;101659.28;4988739;28;20234;-74
2021/03/31 11:17:39;;;;;;;13.87;6.97;;;;;;;19.95;35.38;101642.09;4981057;28;20225;-72
2021/03/31 11:20:17;;;;;;;11.17;6.53;;;;;;;20.04;36.13;101638.13;4985407;28;20231;-73
2021/03/31 11:28:11;;;;;;;11.37;6.33;;;;;;;20.33;32.74;101638.44;4977154;28;20221;-73
2021/03/31 11:30:37;;;;;;;11.53;6.33;;;;;;;20.40;34.48;101630.13;4983358;28;20228;-73
2021/03/31 11:33:03;;;;;;;13.83;6.13;;;;;;;20.57;31.48;101636.31;4983700;28;20426;-73
2021/03/31 11:35:30;;;;;;;12.43;6.47;;;;;;;20.69;30.62;101629.56;4981763;28;20233;-72
2021/03/31 11:37:56;;;;;;;10.80;6.40;;;;;;;20.65;31.26;101625.34;4988265;28;20769;-73
2021/03/31 11:40:22;;;;;;;12.20;6.30;;;;;;;20.75;29.88;101623.94;4978506;28;20225;-73
2021/03/31 11:42:48;;;;;;;11.77;6.60;;;;;;;20.82;30.28;101625.31;4983995;28;20557;-73
2021/03/31 11:45:15;;;;;;;11.57;6.47;;;;;;;20.75;31.33;101615.97;4984041;28;20216;-73